sensor_id;sensor_type;location;lat;lon;timestamp;P1;durP1;ratioP1;P2;durP2;ratioP2
41921;SDS011;27609;51.002;5.354;2022-10-31T00:01:45;24.60;;;14.82;;
41921;SDS011;27609;51.002;5.354;2022-10-31T00:04:11;23.15;;;15.30;;
41921;SDS011;27609;51.002;5.354;2022-10-31T00:06:37;26.80;;;14.98;;
41921;SDS011;27609;51.002;5.354;2022-10-31T00:09:03;24.70;;;15.45;;
41921;SDS011;27609;51.002;5.354;2022-10-31T00:11:29;24.77;;;15.30;;
41921;SDS011;27609;51.002;5.354;2022-10-31T00:13:56;27.30;;;14.68;;
41921;SDS011;27609;51.002;5.354;2022-10-31T00:16:24;31.70;;;15.70;;
41921;SDS011;27609;51.002;5.354;2022-10-31T00:18:52;35.58;;;15.93;;
41921;SDS011;27609;51.002;5.354;2022-10-31T00:21:20;25.17;;;15.07;;
41921;SDS011;27609;51.002;5.354;2022-10-31T00:23:46;26.42;;;15.45;;
41921;SDS011;27609;51.002;5.354;2022-10-31T00:26:12;25.67;;;15.30;;
41921;SDS011;27609;51.002;5.354;2022-10-31T00:28:37;25.15;;;15.45;;
41921;SDS011;27609;51.002;5.354;2022-10-31T00:31:04;31.77;;;16.08;;
41921;SDS011;27609;51.002;5.354;2022-10-31T00:33:32;27.80;;;14.20;;
41921;SDS011;27609;51.002;5.354;2022-10-31T00:35:59;25.20;;;15.02;;
41921;SDS011;27609;51.002;5.354;2022-10-31T00:38:25;24.77;;;16.70;;
41921;SDS011;27609;51.002;5.354;2022-10-31T00:40:51;26.80;;;16.20;;
41921;SDS011;27609;51.002;5.354;2022-10-31T00:43:17;29.77;;;16.40;;
41921;SDS011;27609;51.002;5.354;2022-10-31T00:45:43;25.20;;;16.27;;
41921;SDS011;27609;51.002;5.354;2022-10-31T00:48:09;25.08;;;16.20;;
41921;SDS011;27609;51.002;5.354;2022-10-31T00:50:35;24.83;;;15.48;;
41921;SDS011;27609;51.002;5.354;2022-10-31T00:53:00;27.95;;;15.60;;
41921;SDS011;27609;51.002;5.354;2022-10-31T00:55:26;30.23;;;15.90;;
41921;SDS011;27609;51.002;5.354;2022-10-31T00:57:52;30.30;;;16.90;;
41921;SDS011;27609;51.002;5.354;2022-10-31T01:00:17;28.20;;;17.08;;
41921;SDS011;27609;51.002;5.354;2022-10-31T01:02:43;23.85;;;16.35;;
41921;SDS011;27609;51.002;5.354;2022-10-31T01:05:09;28.73;;;17.10;;
41921;SDS011;27609;51.002;5.354;2022-10-31T01:07:38;29.25;;;17.23;;
41921;SDS011;27609;51.002;5.354;2022-10-31T01:10:05;34.22;;;18.75;;
41921;SDS011;27609;51.002;5.354;2022-10-31T01:12:41;33.50;;;17.40;;
41921;SDS011;27609;51.002;5.354;2022-10-31T01:15:09;30.45;;;18.85;;
41921;SDS011;27609;51.002;5.354;2022-10-31T01:17:36;35.70;;;18.42;;
41921;SDS011;27609;51.002;5.354;2022-10-31T01:20:02;33.13;;;18.45;;
41921;SDS011;27609;51.002;5.354;2022-10-31T01:22:29;28.00;;;18.65;;
41921;SDS011;27609;51.002;5.354;2022-10-31T01:24:54;32.20;;;19.42;;
41921;SDS011;27609;51.002;5.354;2022-10-31T01:27:20;34.80;;;19.05;;
41921;SDS011;27609;51.002;5.354;2022-10-31T01:29:46;31.67;;;19.38;;
41921;SDS011;27609;51.002;5.354;2022-10-31T01:32:11;32.25;;;19.65;;
41921;SDS011;27609;51.002;5.354;2022-10-31T01:34:37;28.05;;;18.70;;
41921;SDS011;27609;51.002;5.354;2022-10-31T01:37:05;43.22;;;22.52;;
41921;SDS011;27609;51.002;5.354;2022-10-31T01:39:30;43.47;;;21.35;;
41921;SDS011;27609;51.002;5.354;2022-10-31T01:41:56;41.50;;;21.88;;
41921;SDS011;27609;51.002;5.354;2022-10-31T01:49:18;37.28;;;21.45;;
41921;SDS011;27609;51.002;5.354;2022-10-31T01:51:47;37.60;;;21.67;;
41921;SDS011;27609;51.002;5.354;2022-10-31T01:54:20;38.95;;;22.85;;
41921;SDS011;27609;51.002;5.354;2022-10-31T01:56:48;42.78;;;23.42;;
41921;SDS011;27609;51.002;5.354;2022-10-31T01:59:19;36.47;;;22.10;;
41921;SDS011;27609;51.002;5.354;2022-10-31T02:01:46;34.20;;;19.92;;
41921;SDS011;27609;51.002;5.354;2022-10-31T02:04:14;31.05;;;19.52;;
41921;SDS011;27609;51.002;5.354;2022-10-31T02:07:01;30.88;;;17.60;;
41921;SDS011;27609;51.002;5.354;2022-10-31T02:09:31;29.92;;;18.67;;
41921;SDS011;27609;51.002;5.354;2022-10-31T02:11:58;32.90;;;17.45;;
41921;SDS011;27609;51.002;5.354;2022-10-31T02:14:26;33.88;;;19.02;;
41921;SDS011;27609;51.002;5.354;2022-10-31T02:16:55;32.47;;;18.50;;
41921;SDS011;27609;51.002;5.354;2022-10-31T02:19:25;28.75;;;18.38;;
41921;SDS011;27609;51.002;5.354;2022-10-31T02:22:15;34.40;;;19.10;;
41921;SDS011;27609;51.002;5.354;2022-10-31T02:33:38;28.98;;;17.50;;
41921;SDS011;27609;51.002;5.354;2022-10-31T02:36:11;27.00;;;16.42;;
41921;SDS011;27609;51.002;5.354;2022-10-31T02:46:52;29.90;;;18.38;;
41921;SDS011;27609;51.002;5.354;2022-10-31T02:49:24;31.95;;;17.77;;
41921;SDS011;27609;51.002;5.354;2022-10-31T02:52:16;29.95;;;18.92;;
41921;SDS011;27609;51.002;5.354;2022-10-31T02:54:43;28.05;;;18.35;;
41921;SDS011;27609;51.002;5.354;2022-10-31T02:57:11;30.02;;;17.88;;
41921;SDS011;27609;51.002;5.354;2022-10-31T02:59:40;31.02;;;17.55;;
41921;SDS011;27609;51.002;5.354;2022-10-31T03:05:01;31.70;;;18.17;;
41921;SDS011;27609;51.002;5.354;2022-10-31T03:07:42;28.55;;;17.13;;
41921;SDS011;27609;51.002;5.354;2022-10-31T03:13:01;30.77;;;16.40;;
41921;SDS011;27609;51.002;5.354;2022-10-31T03:15:47;26.40;;;15.35;;
41921;SDS011;27609;51.002;5.354;2022-10-31T03:20:56;26.88;;;17.10;;
41921;SDS011;27609;51.002;5.354;2022-10-31T03:23:23;39.42;;;17.60;;
41921;SDS011;27609;51.002;5.354;2022-10-31T03:25:52;31.40;;;18.48;;
41921;SDS011;27609;51.002;5.354;2022-10-31T03:28:21;39.50;;;19.73;;
41921;SDS011;27609;51.002;5.354;2022-10-31T03:30:50;35.45;;;20.27;;
41921;SDS011;27609;51.002;5.354;2022-10-31T03:33:18;37.08;;;20.85;;
41921;SDS011;27609;51.002;5.354;2022-10-31T03:35:50;41.25;;;21.38;;
41921;SDS011;27609;51.002;5.354;2022-10-31T03:38:18;41.05;;;21.63;;
41921;SDS011;27609;51.002;5.354;2022-10-31T03:40:45;38.85;;;23.33;;
41921;SDS011;27609;51.002;5.354;2022-10-31T03:43:14;40.75;;;22.08;;
41921;SDS011;27609;51.002;5.354;2022-10-31T03:45:44;37.25;;;20.27;;
41921;SDS011;27609;51.002;5.354;2022-10-31T03:48:12;36.00;;;20.48;;
41921;SDS011;27609;51.002;5.354;2022-10-31T03:50:46;36.30;;;21.58;;
41921;SDS011;27609;51.002;5.354;2022-10-31T03:53:36;34.75;;;19.73;;
41921;SDS011;27609;51.002;5.354;2022-10-31T03:58:45;33.17;;;19.80;;
41921;SDS011;27609;51.002;5.354;2022-10-31T04:01:17;27.30;;;18.50;;
41921;SDS011;27609;51.002;5.354;2022-10-31T04:03:45;31.88;;;18.65;;
41921;SDS011;27609;51.002;5.354;2022-10-31T04:06:12;29.95;;;16.67;;
41921;SDS011;27609;51.002;5.354;2022-10-31T04:08:59;29.83;;;17.92;;
41921;SDS011;27609;51.002;5.354;2022-10-31T04:11:28;25.65;;;15.70;;
41921;SDS011;27609;51.002;5.354;2022-10-31T04:16:25;30.85;;;17.42;;
41921;SDS011;27609;51.002;5.354;2022-10-31T04:18:51;30.92;;;18.90;;
41921;SDS011;27609;51.002;5.354;2022-10-31T04:21:17;31.65;;;16.83;;
41921;SDS011;27609;51.002;5.354;2022-10-31T04:23:43;31.02;;;16.33;;
41921;SDS011;27609;51.002;5.354;2022-10-31T04:26:12;26.40;;;16.38;;
41921;SDS011;27609;51.002;5.354;2022-10-31T04:28:38;24.15;;;15.23;;
41921;SDS011;27609;51.002;5.354;2022-10-31T04:31:04;27.17;;;16.05;;
41921;SDS011;27609;51.002;5.354;2022-10-31T04:33:29;26.95;;;15.85;;
41921;SDS011;27609;51.002;5.354;2022-10-31T04:35:55;23.50;;;15.68;;
41921;SDS011;27609;51.002;5.354;2022-10-31T04:38:21;28.88;;;17.40;;
41921;SDS011;27609;51.002;5.354;2022-10-31T04:40:46;40.83;;;19.33;;
41921;SDS011;27609;51.002;5.354;2022-10-31T04:43:12;37.33;;;19.48;;
41921;SDS011;27609;51.002;5.354;2022-10-31T04:45:38;31.98;;;19.73;;
41921;SDS011;27609;51.002;5.354;2022-10-31T04:48:03;41.72;;;19.77;;
41921;SDS011;27609;51.002;5.354;2022-10-31T04:50:29;37.50;;;19.65;;
41921;SDS011;27609;51.002;5.354;2022-10-31T04:52:55;42.40;;;21.73;;
41921;SDS011;27609;51.002;5.354;2022-10-31T04:55:21;36.72;;;21.08;;
41921;SDS011;27609;51.002;5.354;2022-10-31T04:57:48;45.17;;;22.00;;
41921;SDS011;27609;51.002;5.354;2022-10-31T05:00:15;42.90;;;21.85;;
41921;SDS011;27609;51.002;5.354;2022-10-31T05:02:49;40.20;;;20.52;;
41921;SDS011;27609;51.002;5.354;2022-10-31T05:05:19;34.80;;;21.02;;
41921;SDS011;27609;51.002;5.354;2022-10-31T05:07:46;34.67;;;20.30;;
41921;SDS011;27609;51.002;5.354;2022-10-31T05:10:14;38.00;;;19.55;;
41921;SDS011;27609;51.002;5.354;2022-10-31T05:12:49;29.15;;;16.70;;
41921;SDS011;27609;51.002;5.354;2022-10-31T05:15:20;30.83;;;16.83;;
41921;SDS011;27609;51.002;5.354;2022-10-31T05:17:46;29.20;;;17.02;;
41921;SDS011;27609;51.002;5.354;2022-10-31T05:20:12;29.00;;;16.33;;
41921;SDS011;27609;51.002;5.354;2022-10-31T05:22:43;24.15;;;15.15;;
41921;SDS011;27609;51.002;5.354;2022-10-31T05:25:09;23.70;;;15.97;;
41921;SDS011;27609;51.002;5.354;2022-10-31T05:27:38;31.50;;;15.55;;
41921;SDS011;27609;51.002;5.354;2022-10-31T05:30:05;26.85;;;16.95;;
41921;SDS011;27609;51.002;5.354;2022-10-31T05:32:36;31.23;;;16.95;;
41921;SDS011;27609;51.002;5.354;2022-10-31T05:35:08;30.38;;;17.27;;
41921;SDS011;27609;51.002;5.354;2022-10-31T05:37:36;30.17;;;18.55;;
41921;SDS011;27609;51.002;5.354;2022-10-31T05:40:03;28.90;;;18.60;;
41921;SDS011;27609;51.002;5.354;2022-10-31T05:42:29;29.42;;;15.65;;
41921;SDS011;27609;51.002;5.354;2022-10-31T05:44:55;27.80;;;16.63;;
41921;SDS011;27609;51.002;5.354;2022-10-31T05:47:21;27.70;;;15.32;;
41921;SDS011;27609;51.002;5.354;2022-10-31T05:49:46;20.00;;;14.75;;
41921;SDS011;27609;51.002;5.354;2022-10-31T05:52:12;24.13;;;14.73;;
41921;SDS011;27609;51.002;5.354;2022-10-31T05:54:38;26.52;;;17.58;;
41921;SDS011;27609;51.002;5.354;2022-10-31T05:57:04;23.88;;;16.15;;
41921;SDS011;27609;51.002;5.354;2022-10-31T05:59:29;22.85;;;15.40;;
41921;SDS011;27609;51.002;5.354;2022-10-31T06:01:55;25.77;;;14.77;;
41921;SDS011;27609;51.002;5.354;2022-10-31T06:04:20;26.42;;;15.02;;
41921;SDS011;27609;51.002;5.354;2022-10-31T06:06:46;24.48;;;15.40;;
41921;SDS011;27609;51.002;5.354;2022-10-31T06:09:12;29.00;;;14.82;;
41921;SDS011;27609;51.002;5.354;2022-10-31T06:11:37;23.70;;;14.48;;
41921;SDS011;27609;51.002;5.354;2022-10-31T06:14:04;26.42;;;14.77;;
41921;SDS011;27609;51.002;5.354;2022-10-31T06:16:29;27.92;;;15.38;;
41921;SDS011;27609;51.002;5.354;2022-10-31T06:18:55;30.80;;;16.23;;
41921;SDS011;27609;51.002;5.354;2022-10-31T06:21:21;26.75;;;15.75;;
41921;SDS011;27609;51.002;5.354;2022-10-31T06:23:47;21.40;;;14.60;;
41921;SDS011;27609;51.002;5.354;2022-10-31T06:26:12;27.30;;;15.25;;
41921;SDS011;27609;51.002;5.354;2022-10-31T06:28:38;24.00;;;14.38;;
41921;SDS011;27609;51.002;5.354;2022-10-31T06:31:04;30.35;;;15.57;;
41921;SDS011;27609;51.002;5.354;2022-10-31T06:33:29;20.15;;;13.80;;
41921;SDS011;27609;51.002;5.354;2022-10-31T06:35:55;18.90;;;13.63;;
41921;SDS011;27609;51.002;5.354;2022-10-31T06:38:21;20.73;;;13.63;;
41921;SDS011;27609;51.002;5.354;2022-10-31T06:40:47;24.33;;;13.45;;
41921;SDS011;27609;51.002;5.354;2022-10-31T06:43:12;20.05;;;13.32;;
41921;SDS011;27609;51.002;5.354;2022-10-31T06:45:42;19.05;;;13.02;;
41921;SDS011;27609;51.002;5.354;2022-10-31T06:48:08;25.60;;;15.10;;
41921;SDS011;27609;51.002;5.354;2022-10-31T06:50:34;19.42;;;14.30;;
41921;SDS011;27609;51.002;5.354;2022-10-31T06:52:59;21.92;;;13.88;;
41921;SDS011;27609;51.002;5.354;2022-10-31T06:55:25;20.60;;;14.10;;
41921;SDS011;27609;51.002;5.354;2022-10-31T06:57:52;20.92;;;13.55;;
41921;SDS011;27609;51.002;5.354;2022-10-31T07:00:22;19.38;;;14.00;;
41921;SDS011;27609;51.002;5.354;2022-10-31T07:02:56;23.42;;;14.35;;
41921;SDS011;27609;51.002;5.354;2022-10-31T07:05:23;26.63;;;14.70;;
41921;SDS011;27609;51.002;5.354;2022-10-31T07:08:11;25.67;;;14.30;;
41921;SDS011;27609;51.002;5.354;2022-10-31T07:10:41;23.98;;;14.75;;
41921;SDS011;27609;51.002;5.354;2022-10-31T07:13:12;19.83;;;14.35;;
41921;SDS011;27609;51.002;5.354;2022-10-31T07:15:39;27.15;;;14.48;;
41921;SDS011;27609;51.002;5.354;2022-10-31T07:18:07;23.80;;;14.73;;
41921;SDS011;27609;51.002;5.354;2022-10-31T07:20:34;26.70;;;15.15;;
41921;SDS011;27609;51.002;5.354;2022-10-31T07:23:00;23.77;;;15.20;;
41921;SDS011;27609;51.002;5.354;2022-10-31T07:25:26;26.95;;;14.65;;
41921;SDS011;27609;51.002;5.354;2022-10-31T07:27:52;25.05;;;14.73;;
41921;SDS011;27609;51.002;5.354;2022-10-31T07:30:18;22.02;;;14.07;;
41921;SDS011;27609;51.002;5.354;2022-10-31T07:32:44;26.55;;;14.65;;
41921;SDS011;27609;51.002;5.354;2022-10-31T07:35:13;24.52;;;14.15;;
41921;SDS011;27609;51.002;5.354;2022-10-31T07:37:40;27.90;;;15.18;;
41921;SDS011;27609;51.002;5.354;2022-10-31T07:40:06;25.10;;;15.00;;
41921;SDS011;27609;51.002;5.354;2022-10-31T07:42:40;27.65;;;14.70;;
41921;SDS011;27609;51.002;5.354;2022-10-31T07:45:08;21.90;;;13.80;;
41921;SDS011;27609;51.002;5.354;2022-10-31T07:47:40;23.50;;;13.80;;
41921;SDS011;27609;51.002;5.354;2022-10-31T07:50:09;22.27;;;14.50;;
41921;SDS011;27609;51.002;5.354;2022-10-31T07:52:36;20.92;;;13.38;;
41921;SDS011;27609;51.002;5.354;2022-10-31T07:55:02;25.38;;;13.43;;
41921;SDS011;27609;51.002;5.354;2022-10-31T07:57:29;25.02;;;14.15;;
41921;SDS011;27609;51.002;5.354;2022-10-31T07:59:55;26.77;;;15.63;;
41921;SDS011;27609;51.002;5.354;2022-10-31T08:02:21;24.27;;;14.82;;
41921;SDS011;27609;51.002;5.354;2022-10-31T08:04:47;23.70;;;15.13;;
41921;SDS011;27609;51.002;5.354;2022-10-31T08:07:13;23.65;;;14.60;;
41921;SDS011;27609;51.002;5.354;2022-10-31T08:09:39;26.27;;;13.73;;
41921;SDS011;27609;51.002;5.354;2022-10-31T08:12:08;23.70;;;14.00;;
41921;SDS011;27609;51.002;5.354;2022-10-31T08:14:34;28.95;;;14.90;;
41921;SDS011;27609;51.002;5.354;2022-10-31T08:17:00;19.05;;;13.55;;
41921;SDS011;27609;51.002;5.354;2022-10-31T08:19:26;22.13;;;13.82;;
41921;SDS011;27609;51.002;5.354;2022-10-31T08:21:52;22.13;;;13.77;;
41921;SDS011;27609;51.002;5.354;2022-10-31T08:24:19;18.52;;;10.55;;
41921;SDS011;27609;51.002;5.354;2022-10-31T08:26:46;24.90;;;12.20;;
41921;SDS011;27609;51.002;5.354;2022-10-31T08:29:12;17.38;;;12.40;;
41921;SDS011;27609;51.002;5.354;2022-10-31T08:31:39;20.95;;;11.90;;
41921;SDS011;27609;51.002;5.354;2022-10-31T08:34:05;18.35;;;12.45;;
41921;SDS011;27609;51.002;5.354;2022-10-31T08:36:31;22.85;;;13.55;;
41921;SDS011;27609;51.002;5.354;2022-10-31T08:38:56;23.60;;;13.43;;
41921;SDS011;27609;51.002;5.354;2022-10-31T08:41:22;20.88;;;14.02;;
41921;SDS011;27609;51.002;5.354;2022-10-31T08:43:48;24.20;;;15.13;;
41921;SDS011;27609;51.002;5.354;2022-10-31T08:46:14;30.25;;;14.02;;
41921;SDS011;27609;51.002;5.354;2022-10-31T08:48:39;26.30;;;14.73;;
41921;SDS011;27609;51.002;5.354;2022-10-31T08:51:05;32.35;;;14.43;;
41921;SDS011;27609;51.002;5.354;2022-10-31T08:53:31;27.60;;;16.13;;
41921;SDS011;27609;51.002;5.354;2022-10-31T08:55:57;25.48;;;16.67;;
41921;SDS011;27609;51.002;5.354;2022-10-31T08:58:23;32.42;;;16.70;;
41921;SDS011;27609;51.002;5.354;2022-10-31T09:00:50;24.20;;;12.48;;
41921;SDS011;27609;51.002;5.354;2022-10-31T09:03:18;18.20;;;12.95;;
41921;SDS011;27609;51.002;5.354;2022-10-31T09:05:54;24.02;;;14.05;;
41921;SDS011;27609;51.002;5.354;2022-10-31T09:08:21;23.02;;;15.10;;
41921;SDS011;27609;51.002;5.354;2022-10-31T09:10:46;28.13;;;15.60;;
41921;SDS011;27609;51.002;5.354;2022-10-31T09:13:16;28.05;;;14.82;;
41921;SDS011;27609;51.002;5.354;2022-10-31T09:15:46;27.05;;;14.63;;
41921;SDS011;27609;51.002;5.354;2022-10-31T09:18:14;20.65;;;15.30;;
41921;SDS011;27609;51.002;5.354;2022-10-31T09:20:41;26.80;;;14.10;;
41921;SDS011;27609;51.002;5.354;2022-10-31T09:23:15;29.35;;;15.88;;
41921;SDS011;27609;51.002;5.354;2022-10-31T09:25:42;25.40;;;15.15;;
41921;SDS011;27609;51.002;5.354;2022-10-31T09:28:10;24.83;;;14.68;;
41921;SDS011;27609;51.002;5.354;2022-10-31T09:30:37;25.25;;;15.82;;
41921;SDS011;27609;51.002;5.354;2022-10-31T09:33:04;26.83;;;16.52;;
41921;SDS011;27609;51.002;5.354;2022-10-31T09:35:32;30.13;;;17.48;;
41921;SDS011;27609;51.002;5.354;2022-10-31T09:37:59;28.88;;;16.98;;
41921;SDS011;27609;51.002;5.354;2022-10-31T09:40:34;33.70;;;17.38;;
41921;SDS011;27609;51.002;5.354;2022-10-31T09:45:47;31.55;;;17.27;;
41921;SDS011;27609;51.002;5.354;2022-10-31T09:51:43;35.47;;;17.77;;
41921;SDS011;27609;51.002;5.354;2022-10-31T09:56:50;38.85;;;18.30;;
41921;SDS011;27609;51.002;5.354;2022-10-31T09:59:39;39.28;;;18.90;;
41921;SDS011;27609;51.002;5.354;2022-10-31T10:02:16;29.27;;;18.52;;
41921;SDS011;27609;51.002;5.354;2022-10-31T10:05:08;33.80;;;16.02;;
41921;SDS011;27609;51.002;5.354;2022-10-31T10:07:47;29.00;;;17.40;;
41921;SDS011;27609;51.002;5.354;2022-10-31T10:18:37;33.90;;;18.52;;
41921;SDS011;27609;51.002;5.354;2022-10-31T10:21:16;26.42;;;16.27;;
41921;SDS011;27609;51.002;5.354;2022-10-31T10:26:43;26.88;;;16.60;;
41921;SDS011;27609;51.002;5.354;2022-10-31T10:29:26;30.60;;;16.85;;
41921;SDS011;27609;51.002;5.354;2022-10-31T10:31:54;34.00;;;15.82;;
41921;SDS011;27609;51.002;5.354;2022-10-31T10:34:25;30.50;;;16.98;;
41921;SDS011;27609;51.002;5.354;2022-10-31T10:37:03;26.75;;;16.05;;
41921;SDS011;27609;51.002;5.354;2022-10-31T10:39:41;34.85;;;17.85;;
41921;SDS011;27609;51.002;5.354;2022-10-31T10:42:11;30.75;;;16.08;;
41921;SDS011;27609;51.002;5.354;2022-10-31T10:44:57;31.00;;;15.70;;
41921;SDS011;27609;51.002;5.354;2022-10-31T10:47:43;28.77;;;14.95;;
41921;SDS011;27609;51.002;5.354;2022-10-31T10:50:18;29.60;;;14.77;;
41921;SDS011;27609;51.002;5.354;2022-10-31T10:52:48;32.03;;;16.08;;
41921;SDS011;27609;51.002;5.354;2022-10-31T10:55:36;33.50;;;15.82;;
41921;SDS011;27609;51.002;5.354;2022-10-31T10:58:09;24.60;;;14.30;;
41921;SDS011;27609;51.002;5.354;2022-10-31T11:00:36;29.98;;;15.82;;
41921;SDS011;27609;51.002;5.354;2022-10-31T11:03:05;24.42;;;14.00;;
41921;SDS011;27609;51.002;5.354;2022-10-31T11:05:44;26.60;;;14.27;;
41921;SDS011;27609;51.002;5.354;2022-10-31T11:08:27;26.27;;;12.50;;
41921;SDS011;27609;51.002;5.354;2022-10-31T11:13:36;24.33;;;12.13;;
41921;SDS011;27609;51.002;5.354;2022-10-31T11:18:43;22.88;;;11.27;;
41921;SDS011;27609;51.002;5.354;2022-10-31T11:23:48;21.52;;;11.43;;
41921;SDS011;27609;51.002;5.354;2022-10-31T11:26:20;19.35;;;11.05;;
41921;SDS011;27609;51.002;5.354;2022-10-31T11:28:55;25.52;;;10.55;;
41921;SDS011;27609;51.002;5.354;2022-10-31T11:31:22;19.88;;;9.30;;
41921;SDS011;27609;51.002;5.354;2022-10-31T11:33:57;18.25;;;9.52;;
41921;SDS011;27609;51.002;5.354;2022-10-31T11:36:27;14.52;;;8.77;;
41921;SDS011;27609;51.002;5.354;2022-10-31T11:38:55;17.00;;;9.07;;
41921;SDS011;27609;51.002;5.354;2022-10-31T11:41:26;19.83;;;8.80;;
41921;SDS011;27609;51.002;5.354;2022-10-31T11:44:15;17.45;;;7.90;;
41921;SDS011;27609;51.002;5.354;2022-10-31T11:46:54;18.75;;;7.63;;
41921;SDS011;27609;51.002;5.354;2022-10-31T11:52:05;16.92;;;7.93;;
41921;SDS011;27609;51.002;5.354;2022-10-31T11:55:34;12.40;;;6.65;;
41921;SDS011;27609;51.002;5.354;2022-10-31T12:02:50;22.95;;;7.25;;
41921;SDS011;27609;51.002;5.354;2022-10-31T12:05:28;15.15;;;7.05;;
41921;SDS011;27609;51.002;5.354;2022-10-31T12:07:58;16.00;;;8.10;;
41921;SDS011;27609;51.002;5.354;2022-10-31T12:10:26;17.70;;;8.35;;
41921;SDS011;27609;51.002;5.354;2022-10-31T12:18:53;15.20;;;9.10;;
41921;SDS011;27609;51.002;5.354;2022-10-31T12:35:30;15.70;;;8.50;;
41921;SDS011;27609;51.002;5.354;2022-10-31T12:38:55;13.85;;;8.50;;
41921;SDS011;27609;51.002;5.354;2022-10-31T12:41:32;20.17;;;9.55;;
41921;SDS011;27609;51.002;5.354;2022-10-31T12:44:25;16.48;;;9.50;;
41921;SDS011;27609;51.002;5.354;2022-10-31T12:58:10;28.90;;;12.07;;
41921;SDS011;27609;51.002;5.354;2022-10-31T13:00:46;17.48;;;10.30;;
41921;SDS011;27609;51.002;5.354;2022-10-31T13:03:30;25.50;;;11.45;;
41921;SDS011;27609;51.002;5.354;2022-10-31T13:06:22;20.38;;;11.75;;
41921;SDS011;27609;51.002;5.354;2022-10-31T13:08:55;23.40;;;11.52;;
41921;SDS011;27609;51.002;5.354;2022-10-31T13:11:30;19.02;;;11.10;;
41921;SDS011;27609;51.002;5.354;2022-10-31T13:14:04;22.50;;;10.63;;
41921;SDS011;27609;51.002;5.354;2022-10-31T13:16:42;25.60;;;11.15;;
41921;SDS011;27609;51.002;5.354;2022-10-31T13:19:14;18.25;;;10.32;;
41921;SDS011;27609;51.002;5.354;2022-10-31T13:21:55;22.92;;;11.70;;
41921;SDS011;27609;51.002;5.354;2022-10-31T13:24:39;25.60;;;12.23;;
41921;SDS011;27609;51.002;5.354;2022-10-31T13:27:13;18.58;;;12.50;;
41921;SDS011;27609;51.002;5.354;2022-10-31T13:30:29;22.60;;;11.48;;
41921;SDS011;27609;51.002;5.354;2022-10-31T13:35:37;21.58;;;10.80;;
41921;SDS011;27609;51.002;5.354;2022-10-31T13:38:33;22.20;;;11.88;;
41921;SDS011;27609;51.002;5.354;2022-10-31T13:48:56;26.85;;;11.98;;
41921;SDS011;27609;51.002;5.354;2022-10-31T13:51:29;25.27;;;13.35;;
41921;SDS011;27609;51.002;5.354;2022-10-31T13:53:58;21.42;;;11.77;;
41921;SDS011;27609;51.002;5.354;2022-10-31T13:56:30;24.73;;;12.73;;
41921;SDS011;27609;51.002;5.354;2022-10-31T14:01:35;21.55;;;10.57;;
41921;SDS011;27609;51.002;5.354;2022-10-31T14:06:38;25.85;;;11.35;;
41921;SDS011;27609;51.002;5.354;2022-10-31T14:09:23;26.48;;;11.43;;
41921;SDS011;27609;51.002;5.354;2022-10-31T14:11:54;19.88;;;11.10;;
41921;SDS011;27609;51.002;5.354;2022-10-31T14:14:23;22.00;;;10.40;;
41921;SDS011;27609;51.002;5.354;2022-10-31T14:16:55;26.33;;;11.90;;
41921;SDS011;27609;51.002;5.354;2022-10-31T14:19:23;22.95;;;9.98;;
41921;SDS011;27609;51.002;5.354;2022-10-31T14:21:50;26.98;;;11.02;;
41921;SDS011;27609;51.002;5.354;2022-10-31T14:24:30;24.42;;;10.18;;
41921;SDS011;27609;51.002;5.354;2022-10-31T14:26:58;19.98;;;9.10;;
41921;SDS011;27609;51.002;5.354;2022-10-31T14:29:27;16.27;;;10.45;;
41921;SDS011;27609;51.002;5.354;2022-10-31T14:31:58;21.35;;;10.50;;
41921;SDS011;27609;51.002;5.354;2022-10-31T14:34:39;18.80;;;9.65;;
41921;SDS011;27609;51.002;5.354;2022-10-31T14:48:36;21.58;;;11.02;;
41921;SDS011;27609;51.002;5.354;2022-10-31T14:51:24;21.02;;;10.15;;
41921;SDS011;27609;51.002;5.354;2022-10-31T14:53:54;22.92;;;10.25;;
41921;SDS011;27609;51.002;5.354;2022-10-31T14:56:25;18.67;;;10.18;;
41921;SDS011;27609;51.002;5.354;2022-10-31T14:58:52;22.88;;;10.05;;
41921;SDS011;27609;51.002;5.354;2022-10-31T15:01:26;23.30;;;10.52;;
41921;SDS011;27609;51.002;5.354;2022-10-31T15:03:58;24.65;;;10.43;;
41921;SDS011;27609;51.002;5.354;2022-10-31T15:06:30;19.63;;;9.60;;
41921;SDS011;27609;51.002;5.354;2022-10-31T15:09:03;20.65;;;9.65;;
41921;SDS011;27609;51.002;5.354;2022-10-31T15:11:29;16.13;;;9.68;;
41921;SDS011;27609;51.002;5.354;2022-10-31T15:14:14;16.00;;;9.27;;
41921;SDS011;27609;51.002;5.354;2022-10-31T15:16:47;19.83;;;9.50;;
41921;SDS011;27609;51.002;5.354;2022-10-31T15:19:16;17.85;;;9.02;;
41921;SDS011;27609;51.002;5.354;2022-10-31T15:21:49;19.58;;;9.50;;
41921;SDS011;27609;51.002;5.354;2022-10-31T15:24:16;18.33;;;9.55;;
41921;SDS011;27609;51.002;5.354;2022-10-31T15:26:50;17.05;;;8.95;;
41921;SDS011;27609;51.002;5.354;2022-10-31T15:29:18;19.48;;;9.40;;
41921;SDS011;27609;51.002;5.354;2022-10-31T15:31:55;21.98;;;10.52;;
41921;SDS011;27609;51.002;5.354;2022-10-31T15:34:41;19.70;;;9.73;;
41921;SDS011;27609;51.002;5.354;2022-10-31T15:37:15;13.98;;;9.48;;
41921;SDS011;27609;51.002;5.354;2022-10-31T15:39:43;19.70;;;9.68;;
41921;SDS011;27609;51.002;5.354;2022-10-31T15:47:31;22.75;;;10.13;;
41921;SDS011;27609;51.002;5.354;2022-10-31T15:49:59;19.58;;;10.10;;
41921;SDS011;27609;51.002;5.354;2022-10-31T15:54:56;16.35;;;8.93;;
41921;SDS011;27609;51.002;5.354;2022-10-31T15:57:47;20.80;;;9.50;;
41921;SDS011;27609;51.002;5.354;2022-10-31T16:00:29;15.83;;;9.97;;
41921;SDS011;27609;51.002;5.354;2022-10-31T16:05:33;15.52;;;8.18;;
41921;SDS011;27609;51.002;5.354;2022-10-31T16:08:04;18.38;;;9.40;;
41921;SDS011;27609;51.002;5.354;2022-10-31T16:10:46;20.35;;;9.32;;
41921;SDS011;27609;51.002;5.354;2022-10-31T16:13:12;17.13;;;8.45;;
41921;SDS011;27609;51.002;5.354;2022-10-31T16:15:45;20.63;;;9.52;;
41921;SDS011;27609;51.002;5.354;2022-10-31T16:18:19;19.50;;;8.23;;
41921;SDS011;27609;51.002;5.354;2022-10-31T16:20:48;22.67;;;8.38;;
41921;SDS011;27609;51.002;5.354;2022-10-31T16:23:17;23.30;;;8.45;;
41921;SDS011;27609;51.002;5.354;2022-10-31T16:25:45;18.27;;;7.68;;
41921;SDS011;27609;51.002;5.354;2022-10-31T16:28:22;10.27;;;6.13;;
41921;SDS011;27609;51.002;5.354;2022-10-31T16:30:50;13.70;;;5.43;;
41921;SDS011;27609;51.002;5.354;2022-10-31T16:33:25;17.42;;;5.78;;
41921;SDS011;27609;51.002;5.354;2022-10-31T16:35:51;12.55;;;5.13;;
41921;SDS011;27609;51.002;5.354;2022-10-31T16:38:17;15.85;;;4.82;;
41921;SDS011;27609;51.002;5.354;2022-10-31T16:40:43;9.10;;;5.47;;
41921;SDS011;27609;51.002;5.354;2022-10-31T16:43:13;8.93;;;5.28;;
41921;SDS011;27609;51.002;5.354;2022-10-31T16:45:46;7.88;;;4.10;;
41921;SDS011;27609;51.002;5.354;2022-10-31T16:48:16;12.20;;;4.43;;
41921;SDS011;27609;51.002;5.354;2022-10-31T16:50:44;11.75;;;4.50;;
41921;SDS011;27609;51.002;5.354;2022-10-31T16:53:11;14.10;;;4.05;;
41921;SDS011;27609;51.002;5.354;2022-10-31T16:55:46;8.43;;;4.13;;
41921;SDS011;27609;51.002;5.354;2022-10-31T16:58:20;9.27;;;3.95;;
41921;SDS011;27609;51.002;5.354;2022-10-31T17:00:49;12.98;;;4.50;;
41921;SDS011;27609;51.002;5.354;2022-10-31T17:03:15;17.85;;;5.57;;